sensor_id;sensor_type;location;lat;lon;timestamp;temperature;humidity
3466;DHT22;1747;48.884;9.160;2022-11-11T00:00:04;7.80;99.90
3466;DHT22;1747;48.884;9.160;2022-11-11T00:02:31;7.80;99.90
3466;DHT22;1747;48.884;9.160;2022-11-11T00:04:58;7.80;99.90
3466;DHT22;1747;48.884;9.160;2022-11-11T00:07:25;7.80;99.90
3466;DHT22;1747;48.884;9.160;2022-11-11T00:09:52;7.80;99.90
3466;DHT22;1747;48.884;9.160;2022-11-11T00:12:18;7.80;99.90
3466;DHT22;1747;48.884;9.160;2022-11-11T00:14:45;7.80;99.90
3466;DHT22;1747;48.884;9.160;2022-11-11T00:17:14;7.80;99.90
3466;DHT22;1747;48.884;9.160;2022-11-11T00:19:58;7.70;99.90
3466;DHT22;1747;48.884;9.160;2022-11-11T00:22:42;7.70;99.90
3466;DHT22;1747;48.884;9.160;2022-11-11T00:25:27;7.70;99.90
3466;DHT22;1747;48.884;9.160;2022-11-11T00:27:53;7.70;99.90
3466;DHT22;1747;48.884;9.160;2022-11-11T00:30:20;7.70;99.90
3466;DHT22;1747;48.884;9.160;2022-11-11T00:32:48;7.60;99.90
3466;DHT22;1747;48.884;9.160;2022-11-11T00:35:15;7.60;99.90
3466;DHT22;1747;48.884;9.160;2022-11-11T00:38:06;7.60;99.90
3466;DHT22;1747;48.884;9.160;2022-11-11T00:40:33;7.60;99.90
3466;DHT22;1747;48.884;9.160;2022-11-11T00:43:00;7.60;99.90
3466;DHT22;1747;48.884;9.160;2022-11-11T00:45:27;7.40;99.90
3466;DHT22;1747;48.884;9.160;2022-11-11T00:47:55;7.40;99.90
3466;DHT22;1747;48.884;9.160;2022-11-11T00:50:51;7.30;99.90
3466;DHT22;1747;48.884;9.160;2022-11-11T00:53:25;7.40;99.90
3466;DHT22;1747;48.884;9.160;2022-11-11T00:55:53;7.40;99.90
3466;DHT22;1747;48.884;9.160;2022-11-11T00:58:20;7.50;99.90
3466;DHT22;1747;48.884;9.160;2022-11-11T01:00:47;7.50;99.90
3466;DHT22;1747;48.884;9.160;2022-11-11T01:03:19;7.50;99.90
3466;DHT22;1747;48.884;9.160;2022-11-11T01:05:46;7.40;99.90
3466;DHT22;1747;48.884;9.160;2022-11-11T01:08:14;7.40;99.90
3466;DHT22;1747;48.884;9.160;2022-11-11T01:10:40;7.20;99.90
3466;DHT22;1747;48.884;9.160;2022-11-11T01:13:14;7.20;99.90
3466;DHT22;1747;48.884;9.160;2022-11-11T01:15:43;7.30;99.90
3466;DHT22;1747;48.884;9.160;2022-11-11T01:18:11;7.30;99.90
3466;DHT22;1747;48.884;9.160;2022-11-11T01:20:40;7.40;99.90
3466;DHT22;1747;48.884;9.160;2022-11-11T01:23:08;7.40;99.90
3466;DHT22;1747;48.884;9.160;2022-11-11T01:25:36;7.40;99.90
3466;DHT22;1747;48.884;9.160;2022-11-11T01:28:04;7.40;99.90
3466;DHT22;1747;48.884;9.160;2022-11-11T01:30:32;7.40;99.90
3466;DHT22;1747;48.884;9.160;2022-11-11T01:33:00;7.40;99.90
3466;DHT22;1747;48.884;9.160;2022-11-11T01:35:27;7.50;99.90
3466;DHT22;1747;48.884;9.160;2022-11-11T01:37:55;7.50;99.90
3466;DHT22;1747;48.884;9.160;2022-11-11T01:40:23;7.50;99.90
3466;DHT22;1747;48.884;9.160;2022-11-11T01:42:50;7.60;99.90
3466;DHT22;1747;48.884;9.160;2022-11-11T01:45:50;7.60;99.90
3466;DHT22;1747;48.884;9.160;2022-11-11T01:48:24;7.60;99.90
3466;DHT22;1747;48.884;9.160;2022-11-11T01:51:14;7.60;99.90
3466;DHT22;1747;48.884;9.160;2022-11-11T01:53:45;7.60;99.90
3466;DHT22;1747;48.884;9.160;2022-11-11T01:56:14;7.50;99.90
3466;DHT22;1747;48.884;9.160;2022-11-11T01:58:42;7.40;99.90
3466;DHT22;1747;48.884;9.160;2022-11-11T02:01:09;7.40;99.90
3466;DHT22;1747;48.884;9.160;2022-11-11T02:03:39;7.40;99.90
3466;DHT22;1747;48.884;9.160;2022-11-11T02:06:27;7.50;99.90
3466;DHT22;1747;48.884;9.160;2022-11-11T02:08:55;7.50;99.90
3466;DHT22;1747;48.884;9.160;2022-11-11T02:11:23;7.50;99.90
3466;DHT22;1747;48.884;9.160;2022-11-11T02:14:04;7.50;99.90
3466;DHT22;1747;48.884;9.160;2022-11-11T02:16:49;7.50;99.90
3466;DHT22;1747;48.884;9.160;2022-11-11T02:19:19;7.50;99.90
3466;DHT22;1747;48.884;9.160;2022-11-11T02:21:54;7.50;99.90
3466;DHT22;1747;48.884;9.160;2022-11-11T02:24:23;7.50;99.90
3466;DHT22;1747;48.884;9.160;2022-11-11T02:26:53;7.50;99.90
3466;DHT22;1747;48.884;9.160;2022-11-11T02:29:22;7.50;99.90
3466;DHT22;1747;48.884;9.160;2022-11-11T02:31:49;7.30;99.90
3466;DHT22;1747;48.884;9.160;2022-11-11T02:34:16;7.20;99.90
3466;DHT22;1747;48.884;9.160;2022-11-11T02:36:43;7.10;99.90
3466;DHT22;1747;48.884;9.160;2022-11-11T02:39:10;7.10;99.90
3466;DHT22;1747;48.884;9.160;2022-11-11T02:41:38;6.90;99.90
3466;DHT22;1747;48.884;9.160;2022-11-11T02:44:25;6.80;99.90
3466;DHT22;1747;48.884;9.160;2022-11-11T02:46:52;6.80;99.90
3466;DHT22;1747;48.884;9.160;2022-11-11T02:49:19;6.90;99.90
3466;DHT22;1747;48.884;9.160;2022-11-11T02:51:46;6.80;99.90
3466;DHT22;1747;48.884;9.160;2022-11-11T02:54:13;6.80;99.90
3466;DHT22;1747;48.884;9.160;2022-11-11T02:56:41;6.80;99.90
3466;DHT22;1747;48.884;9.160;2022-11-11T02:59:26;6.70;99.90
3466;DHT22;1747;48.884;9.160;2022-11-11T03:01:52;6.60;99.90
3466;DHT22;1747;48.884;9.160;2022-11-11T03:04:19;6.60;99.90
3466;DHT22;1747;48.884;9.160;2022-11-11T03:06:46;6.70;99.90
3466;DHT22;1747;48.884;9.160;2022-11-11T03:09:13;6.80;99.90
3466;DHT22;1747;48.884;9.160;2022-11-11T03:11:39;6.80;99.90
3466;DHT22;1747;48.884;9.160;2022-11-11T03:14:08;6.90;99.90
3466;DHT22;1747;48.884;9.160;2022-11-11T03:16:34;6.90;99.90
3466;DHT22;1747;48.884;9.160;2022-11-11T03:19:19;6.90;99.90
3466;DHT22;1747;48.884;9.160;2022-11-11T03:21:46;6.90;99.90
3466;DHT22;1747;48.884;9.160;2022-11-11T03:24:12;6.90;99.90
3466;DHT22;1747;48.884;9.160;2022-11-11T03:26:39;6.80;99.90
3466;DHT22;1747;48.884;9.160;2022-11-11T03:29:07;6.70;99.90
3466;DHT22;1747;48.884;9.160;2022-11-11T03:31:34;6.70;99.90
3466;DHT22;1747;48.884;9.160;2022-11-11T03:34:02;6.60;99.90
3466;DHT22;1747;48.884;9.160;2022-11-11T03:36:55;6.60;99.90
3466;DHT22;1747;48.884;9.160;2022-11-11T03:39:40;6.60;99.90
3466;DHT22;1747;48.884;9.160;2022-11-11T03:42:06;6.70;99.90
3466;DHT22;1747;48.884;9.160;2022-11-11T03:44:33;6.70;99.90
3466;DHT22;1747;48.884;9.160;2022-11-11T03:47:00;6.80;99.90
3466;DHT22;1747;48.884;9.160;2022-11-11T03:49:27;6.80;99.90
3466;DHT22;1747;48.884;9.160;2022-11-11T03:51:53;6.80;99.90
3466;DHT22;1747;48.884;9.160;2022-11-11T03:54:22;6.90;99.90
3466;DHT22;1747;48.884;9.160;2022-11-11T03:56:48;6.90;99.90
3466;DHT22;1747;48.884;9.160;2022-11-11T03:59:15;6.90;99.90
3466;DHT22;1747;48.884;9.160;2022-11-11T04:01:42;6.90;99.90
3466;DHT22;1747;48.884;9.160;2022-11-11T04:04:26;6.90;99.90
3466;DHT22;1747;48.884;9.160;2022-11-11T04:07:08;7.00;99.90
3466;DHT22;1747;48.884;9.160;2022-11-11T04:09:54;7.00;99.90
3466;DHT22;1747;48.884;9.160;2022-11-11T04:12:40;7.00;99.90
3466;DHT22;1747;48.884;9.160;2022-11-11T04:15:21;7.00;99.90
3466;DHT22;1747;48.884;9.160;2022-11-11T04:18:05;6.80;99.90
3466;DHT22;1747;48.884;9.160;2022-11-11T04:20:32;6.70;99.90
3466;DHT22;1747;48.884;9.160;2022-11-11T04:23:17;6.60;99.90
3466;DHT22;1747;48.884;9.160;2022-11-11T04:25:45;6.60;99.90
3466;DHT22;1747;48.884;9.160;2022-11-11T04:28:13;6.60;99.90
3466;DHT22;1747;48.884;9.160;2022-11-11T04:30:58;6.50;99.90
3466;DHT22;1747;48.884;9.160;2022-11-11T04:33:25;6.50;99.90
3466;DHT22;1747;48.884;9.160;2022-11-11T04:35:51;6.60;99.90
3466;DHT22;1747;48.884;9.160;2022-11-11T04:38:17;6.60;99.90
3466;DHT22;1747;48.884;9.160;2022-11-11T04:41:11;6.70;99.90
3466;DHT22;1747;48.884;9.160;2022-11-11T04:43:38;6.70;99.90
3466;DHT22;1747;48.884;9.160;2022-11-11T04:46:19;6.70;99.90
3466;DHT22;1747;48.884;9.160;2022-11-11T04:48:46;6.80;99.90
3466;DHT22;1747;48.884;9.160;2022-11-11T04:51:12;6.80;99.90
3466;DHT22;1747;48.884;9.160;2022-11-11T04:53:39;6.80;99.90
3466;DHT22;1747;48.884;9.160;2022-11-11T04:56:07;6.80;99.90
3466;DHT22;1747;48.884;9.160;2022-11-11T04:58:52;6.90;99.90
3466;DHT22;1747;48.884;9.160;2022-11-11T05:01:39;6.80;99.90
3466;DHT22;1747;48.884;9.160;2022-11-11T05:04:23;6.70;99.90
3466;DHT22;1747;48.884;9.160;2022-11-11T05:06:50;6.60;99.90
3466;DHT22;1747;48.884;9.160;2022-11-11T05:09:34;6.60;99.90
3466;DHT22;1747;48.884;9.160;2022-11-11T05:12:01;6.60;99.90
3466;DHT22;1747;48.884;9.160;2022-11-11T05:14:29;6.60;99.90
3466;DHT22;1747;48.884;9.160;2022-11-11T05:17:13;6.50;99.90
3466;DHT22;1747;48.884;9.160;2022-11-11T05:19:58;6.50;99.90
3466;DHT22;1747;48.884;9.160;2022-11-11T05:22:42;6.50;99.90
3466;DHT22;1747;48.884;9.160;2022-11-11T05:25:10;6.50;99.90
3466;DHT22;1747;48.884;9.160;2022-11-11T05:27:54;6.50;99.90
3466;DHT22;1747;48.884;9.160;2022-11-11T05:30:24;6.50;99.90
3466;DHT22;1747;48.884;9.160;2022-11-11T05:32:53;6.40;99.90
3466;DHT22;1747;48.884;9.160;2022-11-11T05:35:20;6.30;99.90
3466;DHT22;1747;48.884;9.160;2022-11-11T05:37:47;6.30;99.90
3466;DHT22;1747;48.884;9.160;2022-11-11T05:40:34;6.20;99.90
3466;DHT22;1747;48.884;9.160;2022-11-11T05:43:01;6.20;99.90
3466;DHT22;1747;48.884;9.160;2022-11-11T05:45:29;6.30;99.90
3466;DHT22;1747;48.884;9.160;2022-11-11T05:48:00;6.30;99.90
3466;DHT22;1747;48.884;9.160;2022-11-11T05:50:27;6.40;99.90
3466;DHT22;1747;48.884;9.160;2022-11-11T05:52:53;6.30;99.90
3466;DHT22;1747;48.884;9.160;2022-11-11T05:55:20;6.40;99.90
3466;DHT22;1747;48.884;9.160;2022-11-11T05:57:47;6.40;99.90
3466;DHT22;1747;48.884;9.160;2022-11-11T06:00:15;6.40;99.90
3466;DHT22;1747;48.884;9.160;2022-11-11T06:02:44;6.40;99.90
3466;DHT22;1747;48.884;9.160;2022-11-11T06:05:10;6.40;99.90
3466;DHT22;1747;48.884;9.160;2022-11-11T06:07:37;6.40;99.90
3466;DHT22;1747;48.884;9.160;2022-11-11T06:10:06;6.30;99.90
3466;DHT22;1747;48.884;9.160;2022-11-11T06:12:50;6.20;99.90
3466;DHT22;1747;48.884;9.160;2022-11-11T06:15:35;5.90;99.90
3466;DHT22;1747;48.884;9.160;2022-11-11T06:18:04;5.80;99.90
3466;DHT22;1747;48.884;9.160;2022-11-11T06:20:31;5.90;99.90
3466;DHT22;1747;48.884;9.160;2022-11-11T06:23:00;6.10;99.90
3466;DHT22;1747;48.884;9.160;2022-11-11T06:25:28;6.30;99.90
3466;DHT22;1747;48.884;9.160;2022-11-11T06:28:13;6.40;99.90
3466;DHT22;1747;48.884;9.160;2022-11-11T06:30:40;6.50;99.90
3466;DHT22;1747;48.884;9.160;2022-11-11T06:33:08;6.40;99.90
3466;DHT22;1747;48.884;9.160;2022-11-11T06:35:36;6.40;99.90
3466;DHT22;1747;48.884;9.160;2022-11-11T06:38:04;6.30;99.90
3466;DHT22;1747;48.884;9.160;2022-11-11T06:40:32;6.30;99.90
3466;DHT22;1747;48.884;9.160;2022-11-11T06:42:59;6.30;99.90
3466;DHT22;1747;48.884;9.160;2022-11-11T06:45:28;6.30;99.90
3466;DHT22;1747;48.884;9.160;2022-11-11T06:47:55;6.20;99.90
3466;DHT22;1747;48.884;9.160;2022-11-11T06:50:23;6.10;99.90
3466;DHT22;1747;48.884;9.160;2022-11-11T06:52:50;6.10;99.90
3466;DHT22;1747;48.884;9.160;2022-11-11T06:55:16;6.00;99.90
3466;DHT22;1747;48.884;9.160;2022-11-11T06:57:43;6.10;99.90
3466;DHT22;1747;48.884;9.160;2022-11-11T07:00:11;6.20;99.90
3466;DHT22;1747;48.884;9.160;2022-11-11T07:02:38;6.20;99.90
3466;DHT22;1747;48.884;9.160;2022-11-11T07:05:05;6.30;99.90
3466;DHT22;1747;48.884;9.160;2022-11-11T07:07:33;6.30;99.90
3466;DHT22;1747;48.884;9.160;2022-11-11T07:10:02;6.40;99.90
3466;DHT22;1747;48.884;9.160;2022-11-11T07:12:44;6.40;99.90
3466;DHT22;1747;48.884;9.160;2022-11-11T07:15:14;6.50;99.90
3466;DHT22;1747;48.884;9.160;2022-11-11T07:17:43;6.40;99.90
3466;DHT22;1747;48.884;9.160;2022-11-11T07:20:10;6.50;99.90
3466;DHT22;1747;48.884;9.160;2022-11-11T07:22:38;6.50;99.90
3466;DHT22;1747;48.884;9.160;2022-11-11T07:25:06;6.50;99.90
3466;DHT22;1747;48.884;9.160;2022-11-11T07:27:36;6.50;99.90
3466;DHT22;1747;48.884;9.160;2022-11-11T07:30:06;6.50;99.90
3466;DHT22;1747;48.884;9.160;2022-11-11T07:32:34;6.40;99.90
3466;DHT22;1747;48.884;9.160;2022-11-11T07:35:01;6.50;99.90
3466;DHT22;1747;48.884;9.160;2022-11-11T07:37:29;6.50;99.90
3466;DHT22;1747;48.884;9.160;2022-11-11T07:39:58;6.50;99.90
3466;DHT22;1747;48.884;9.160;2022-11-11T07:42:25;6.60;99.90
3466;DHT22;1747;48.884;9.160;2022-11-11T07:44:51;6.50;99.90
3466;DHT22;1747;48.884;9.160;2022-11-11T07:47:18;6.50;99.90
3466;DHT22;1747;48.884;9.160;2022-11-11T07:49:45;6.60;99.90
3466;DHT22;1747;48.884;9.160;2022-11-11T07:52:12;6.60;99.90
3466;DHT22;1747;48.884;9.160;2022-11-11T07:54:39;6.60;99.90
3466;DHT22;1747;48.884;9.160;2022-11-11T07:57:08;6.60;99.90
3466;DHT22;1747;48.884;9.160;2022-11-11T07:59:34;6.70;99.90
3466;DHT22;1747;48.884;9.160;2022-11-11T08:02:01;6.70;99.90
3466;DHT22;1747;48.884;9.160;2022-11-11T08:04:28;6.70;99.90
3466;DHT22;1747;48.884;9.160;2022-11-11T08:06:55;6.80;99.90
3466;DHT22;1747;48.884;9.160;2022-11-11T08:09:21;6.90;99.90
3466;DHT22;1747;48.884;9.160;2022-11-11T08:11:48;7.00;99.90
3466;DHT22;1747;48.884;9.160;2022-11-11T08:14:34;7.00;99.90
3466;DHT22;1747;48.884;9.160;2022-11-11T08:17:01;7.00;99.90
3466;DHT22;1747;48.884;9.160;2022-11-11T08:19:27;7.00;99.90
3466;DHT22;1747;48.884;9.160;2022-11-11T08:21:54;7.10;99.90
3466;DHT22;1747;48.884;9.160;2022-11-11T08:24:21;7.20;99.90
3466;DHT22;1747;48.884;9.160;2022-11-11T08:26:48;7.20;99.90
3466;DHT22;1747;48.884;9.160;2022-11-11T08:29:15;7.20;99.90
3466;DHT22;1747;48.884;9.160;2022-11-11T08:31:43;7.30;99.90
3466;DHT22;1747;48.884;9.160;2022-11-11T08:34:10;7.30;99.90
3466;DHT22;1747;48.884;9.160;2022-11-11T08:36:37;7.30;99.90
3466;DHT22;1747;48.884;9.160;2022-11-11T08:39:04;7.40;99.90
3466;DHT22;1747;48.884;9.160;2022-11-11T08:41:31;7.40;99.90
3466;DHT22;1747;48.884;9.160;2022-11-11T08:43:58;7.50;99.90
3466;DHT22;1747;48.884;9.160;2022-11-11T08:46:25;7.50;99.90
3466;DHT22;1747;48.884;9.160;2022-11-11T08:48:53;7.60;99.90
3466;DHT22;1747;48.884;9.160;2022-11-11T08:51:20;7.80;99.90
3466;DHT22;1747;48.884;9.160;2022-11-11T08:53:47;7.90;99.90
3466;DHT22;1747;48.884;9.160;2022-11-11T08:56:14;8.00;99.90
3466;DHT22;1747;48.884;9.160;2022-11-11T08:58:41;8.20;99.90
3466;DHT22;1747;48.884;9.160;2022-11-11T09:01:10;8.40;99.90
3466;DHT22;1747;48.884;9.160;2022-11-11T09:03:38;8.60;99.90
3466;DHT22;1747;48.884;9.160;2022-11-11T09:06:09;8.70;99.90
3466;DHT22;1747;48.884;9.160;2022-11-11T09:08:36;8.90;99.90
3466;DHT22;1747;48.884;9.160;2022-11-11T09:11:03;9.00;99.90
3466;DHT22;1747;48.884;9.160;2022-11-11T09:13:30;9.20;99.90
3466;DHT22;1747;48.884;9.160;2022-11-11T09:15:57;9.40;99.90
3466;DHT22;1747;48.884;9.160;2022-11-11T09:18:24;9.50;99.90
3466;DHT22;1747;48.884;9.160;2022-11-11T09:20:51;9.60;99.90
3466;DHT22;1747;48.884;9.160;2022-11-11T09:23:19;9.70;99.90
3466;DHT22;1747;48.884;9.160;2022-11-11T09:25:46;9.90;99.90
3466;DHT22;1747;48.884;9.160;2022-11-11T09:28:13;10.00;99.90
3466;DHT22;1747;48.884;9.160;2022-11-11T09:30:40;10.10;99.90
3466;DHT22;1747;48.884;9.160;2022-11-11T09:33:06;10.20;99.90
3466;DHT22;1747;48.884;9.160;2022-11-11T09:35:34;10.30;99.90
3466;DHT22;1747;48.884;9.160;2022-11-11T09:38:01;10.50;99.90
3466;DHT22;1747;48.884;9.160;2022-11-11T09:40:38;10.50;99.90
3466;DHT22;1747;48.884;9.160;2022-11-11T09:43:16;10.70;99.90
3466;DHT22;1747;48.884;9.160;2022-11-11T09:45:55;10.70;99.90
3466;DHT22;1747;48.884;9.160;2022-11-11T09:48:41;10.80;99.90
3466;DHT22;1747;48.884;9.160;2022-11-11T09:51:15;10.90;99.90
3466;DHT22;1747;48.884;9.160;2022-11-11T09:53:48;11.00;99.90
3466;DHT22;1747;48.884;9.160;2022-11-11T09:56:20;11.10;99.90
3466;DHT22;1747;48.884;9.160;2022-11-11T09:58:49;11.20;99.90
3466;DHT22;1747;48.884;9.160;2022-11-11T10:01:20;11.40;99.90
3466;DHT22;1747;48.884;9.160;2022-11-11T10:03:53;11.40;99.90
3466;DHT22;1747;48.884;9.160;2022-11-11T10:06:26;11.50;99.90
3466;DHT22;1747;48.884;9.160;2022-11-11T10:08:57;11.40;99.90
3466;DHT22;1747;48.884;9.160;2022-11-11T10:11:38;11.50;99.90
3466;DHT22;1747;48.884;9.160;2022-11-11T10:14:09;11.70;99.90
3466;DHT22;1747;48.884;9.160;2022-11-11T10:16:43;11.80;99.90
3466;DHT22;1747;48.884;9.160;2022-11-11T10:19:23;11.70;99.90
3466;DHT22;1747;48.884;9.160;2022-11-11T10:21:57;11.80;99.90
3466;DHT22;1747;48.884;9.160;2022-11-11T10:24:28;11.90;99.90
3466;DHT22;1747;48.884;9.160;2022-11-11T10:26:59;12.00;99.90
3466;DHT22;1747;48.884;9.160;2022-11-11T10:29:33;12.00;99.90
3466;DHT22;1747;48.884;9.160;2022-11-11T10:32:04;12.00;99.90
3466;DHT22;1747;48.884;9.160;2022-11-11T10:34:36;12.10;99.90
3466;DHT22;1747;48.884;9.160;2022-11-11T10:37:14;12.20;99.90
3466;DHT22;1747;48.884;9.160;2022-11-11T10:39:53;12.30;99.90
3466;DHT22;1747;48.884;9.160;2022-11-11T10:42:23;12.20;99.90
3466;DHT22;1747;48.884;9.160;2022-11-11T10:44:55;12.30;99.90
3466;DHT22;1747;48.884;9.160;2022-11-11T10:47:32;12.50;99.90
3466;DHT22;1747;48.884;9.160;2022-11-11T10:50:07;12.30;99.90
3466;DHT22;1747;48.884;9.160;2022-11-11T10:52:39;12.50;99.90
3466;DHT22;1747;48.884;9.160;2022-11-11T10:55:10;12.60;99.90
3466;DHT22;1747;48.884;9.160;2022-11-11T10:57:45;12.70;99.90
3466;DHT22;1747;48.884;9.160;2022-11-11T11:02:48;13.00;99.90
3466;DHT22;1747;48.884;9.160;2022-11-11T11:05:23;13.00;99.90
3466;DHT22;1747;48.884;9.160;2022-11-11T11:07:55;13.00;99.90
3466;DHT22;1747;48.884;9.160;2022-11-11T11:10:27;13.10;99.90
3466;DHT22;1747;48.884;9.160;2022-11-11T11:13:03;13.20;99.90
3466;DHT22;1747;48.884;9.160;2022-11-11T11:15:35;13.30;99.90
3466;DHT22;1747;48.884;9.160;2022-11-11T11:18:06;13.30;99.90
3466;DHT22;1747;48.884;9.160;2022-11-11T11:20:34;13.40;99.90
3466;DHT22;1747;48.884;9.160;2022-11-11T11:23:02;13.50;99.90
3466;DHT22;1747;48.884;9.160;2022-11-11T11:25:32;13.60;99.90
3466;DHT22;1747;48.884;9.160;2022-11-11T11:28:09;13.60;99.90
3466;DHT22;1747;48.884;9.160;2022-11-11T11:30:37;13.70;99.90
3466;DHT22;1747;48.884;9.160;2022-11-11T11:33:06;13.80;99.90
3466;DHT22;1747;48.884;9.160;2022-11-11T11:35:35;13.90;99.90
3466;DHT22;1747;48.884;9.160;2022-11-11T11:38:03;13.90;99.90
3466;DHT22;1747;48.884;9.160;2022-11-11T11:40:45;14.00;99.90
3466;DHT22;1747;48.884;9.160;2022-11-11T11:43:32;13.90;99.90
3466;DHT22;1747;48.884;9.160;2022-11-11T11:46:00;14.10;99.90
3466;DHT22;1747;48.884;9.160;2022-11-11T11:48:36;14.20;99.90
3466;DHT22;1747;48.884;9.160;2022-11-11T11:51:19;14.30;99.90
3466;DHT22;1747;48.884;9.160;2022-11-11T11:54:01;14.60;99.90
3466;DHT22;1747;48.884;9.160;2022-11-11T11:56:35;15.00;99.90
3466;DHT22;1747;48.884;9.160;2022-11-11T11:59:10;15.40;99.90
3466;DHT22;1747;48.884;9.160;2022-11-11T12:01:47;15.70;99.90
3466;DHT22;1747;48.884;9.160;2022-11-11T12:04:43;15.80;99.90
3466;DHT22;1747;48.884;9.160;2022-11-11T12:07:17;16.10;99.90
3466;DHT22;1747;48.884;9.160;2022-11-11T12:09:56;16.50;99.90
3466;DHT22;1747;48.884;9.160;2022-11-11T12:12:34;16.80;99.90
3466;DHT22;1747;48.884;9.160;2022-11-11T12:15:13;17.30;99.90
3466;DHT22;1747;48.884;9.160;2022-11-11T12:17:49;17.70;99.90
3466;DHT22;1747;48.884;9.160;2022-11-11T12:20:24;17.90;99.90
3466;DHT22;1747;48.884;9.160;2022-11-11T12:22:59;18.20;99.90
3466;DHT22;1747;48.884;9.160;2022-11-11T12:25:39;18.30;99.90
3466;DHT22;1747;48.884;9.160;2022-11-11T12:28:16;18.50;99.90
3466;DHT22;1747;48.884;9.160;2022-11-11T12:30:51;18.60;99.90
3466;DHT22;1747;48.884;9.160;2022-11-11T12:33:41;18.70;99.90
3466;DHT22;1747;48.884;9.160;2022-11-11T12:36:16;18.80;99.90
3466;DHT22;1747;48.884;9.160;2022-11-11T12:38:54;18.70;99.90
3466;DHT22;1747;48.884;9.160;2022-11-11T12:41:33;18.60;99.90
3466;DHT22;1747;48.884;9.160;2022-11-11T12:44:07;18.50;99.90
3466;DHT22;1747;48.884;9.160;2022-11-11T12:47:00;18.50;99.90
3466;DHT22;1747;48.884;9.160;2022-11-11T12:49:41;18.70;99.90
3466;DHT22;1747;48.884;9.160;2022-11-11T12:52:26;18.90;99.90
3466;DHT22;1747;48.884;9.160;2022-11-11T12:55:11;19.00;99.90
3466;DHT22;1747;48.884;9.160;2022-11-11T12:57:50;19.00;99.90
3466;DHT22;1747;48.884;9.160;2022-11-11T13:00:24;19.10;99.90
3466;DHT22;1747;48.884;9.160;2022-11-11T13:03:20;18.60;99.90
3466;DHT22;1747;48.884;9.160;2022-11-11T13:05:57;18.50;99.90
3466;DHT22;1747;48.884;9.160;2022-11-11T13:08:53;18.30;99.90
3466;DHT22;1747;48.884;9.160;2022-11-11T13:11:29;18.20;99.90
3466;DHT22;1747;48.884;9.160;2022-11-11T13:14:21;18.10;99.90
3466;DHT22;1747;48.884;9.160;2022-11-11T13:16:54;18.00;99.90
3466;DHT22;1747;48.884;9.160;2022-11-11T13:19:30;17.80;99.90
3466;DHT22;1747;48.884;9.160;2022-11-11T13:22:02;17.60;99.90
3466;DHT22;1747;48.884;9.160;2022-11-11T13:24:34;17.70;99.90
3466;DHT22;1747;48.884;9.160;2022-11-11T13:27:04;17.90;99.90
3466;DHT22;1747;48.884;9.160;2022-11-11T13:29:48;17.90;99.90
3466;DHT22;1747;48.884;9.160;2022-11-11T13:32:21;18.20;99.90
3466;DHT22;1747;48.884;9.160;2022-11-11T13:34:52;18.30;99.90
3466;DHT22;1747;48.884;9.160;2022-11-11T13:37:21;18.40;99.90
3466;DHT22;1747;48.884;9.160;2022-11-11T13:39:54;18.50;99.90
3466;DHT22;1747;48.884;9.160;2022-11-11T13:42:27;18.70;99.90
3466;DHT22;1747;48.884;9.160;2022-11-11T13:44:57;18.60;99.90
3466;DHT22;1747;48.884;9.160;2022-11-11T13:47:31;18.60;99.90
3466;DHT22;1747;48.884;9.160;2022-11-11T13:50:03;18.50;99.90
3466;DHT22;1747;48.884;9.160;2022-11-11T13:52:35;18.50;99.90
3466;DHT22;1747;48.884;9.160;2022-11-11T13:55:06;18.50;99.90
3466;DHT22;1747;48.884;9.160;2022-11-11T13:57:47;18.40;99.90
3466;DHT22;1747;48.884;9.160;2022-11-11T14:00:33;18.30;99.90
3466;DHT22;1747;48.884;9.160;2022-11-11T14:03:35;18.40;99.90
3466;DHT22;1747;48.884;9.160;2022-11-11T14:12:22;18.40;99.90
3466;DHT22;1747;48.884;9.160;2022-11-11T14:14:58;18.30;99.90
3466;DHT22;1747;48.884;9.160;2022-11-11T14:17:27;18.30;99.90
3466;DHT22;1747;48.884;9.160;2022-11-11T14:19:55;18.10;99.90
3466;DHT22;1747;48.884;9.160;2022-11-11T14:22:30;17.90;99.90
3466;DHT22;1747;48.884;9.160;2022-11-11T14:25:19;17.90;99.90
3466;DHT22;1747;48.884;9.160;2022-11-11T14:27:47;17.90;99.90
3466;DHT22;1747;48.884;9.160;2022-11-11T14:30:28;17.80;99.90
3466;DHT22;1747;48.884;9.160;2022-11-11T14:33:01;17.70;99.90
3466;DHT22;1747;48.884;9.160;2022-11-11T14:35:36;17.60;99.90
3466;DHT22;1747;48.884;9.160;2022-11-11T14:38:22;17.40;99.90
3466;DHT22;1747;48.884;9.160;2022-11-11T14:40:54;17.30;99.90
3466;DHT22;1747;48.884;9.160;2022-11-11T14:43:35;17.10;99.90
3466;DHT22;1747;48.884;9.160;2022-11-11T14:46:09;17.00;99.90
3466;DHT22;1747;48.884;9.160;2022-11-11T14:48:50;17.00;99.90
3466;DHT22;1747;48.884;9.160;2022-11-11T14:51:49;16.80;99.90
3466;DHT22;1747;48.884;9.160;2022-11-11T14:54:53;16.60;99.90
3466;DHT22;1747;48.884;9.160;2022-11-11T14:57:25;16.50;99.90
3466;DHT22;1747;48.884;9.160;2022-11-11T14:59:56;16.40;99.90
3466;DHT22;1747;48.884;9.160;2022-11-11T15:02:29;16.50;99.90
3466;DHT22;1747;48.884;9.160;2022-11-11T15:04:58;16.40;99.90
3466;DHT22;1747;48.884;9.160;2022-11-11T15:07:33;16.40;99.90
3466;DHT22;1747;48.884;9.160;2022-11-11T15:10:18;16.40;99.90
3466;DHT22;1747;48.884;9.160;2022-11-11T15:13:18;16.30;99.90
3466;DHT22;1747;48.884;9.160;2022-11-11T15:15:54;16.10;99.90
3466;DHT22;1747;48.884;9.160;2022-11-11T15:18:40;16.10;99.90
3466;DHT22;1747;48.884;9.160;2022-11-11T15:21:13;16.00;99.90
3466;DHT22;1747;48.884;9.160;2022-11-11T15:23:48;15.90;99.90
3466;DHT22;1747;48.884;9.160;2022-11-11T15:26:23;15.80;99.90
3466;DHT22;1747;48.884;9.160;2022-11-11T15:29:08;15.60;99.90
3466;DHT22;1747;48.884;9.160;2022-11-11T15:31:42;15.30;99.90
3466;DHT22;1747;48.884;9.160;2022-11-11T15:34:21;15.10;99.90
3466;DHT22;1747;48.884;9.160;2022-11-11T15:36:53;15.00;99.90
3466;DHT22;1747;48.884;9.160;2022-11-11T15:39:24;15.00;99.90
3466;DHT22;1747;48.884;9.160;2022-11-11T15:41:52;14.80;99.90
3466;DHT22;1747;48.884;9.160;2022-11-11T15:44:22;14.50;99.90
3466;DHT22;1747;48.884;9.160;2022-11-11T15:46:51;14.20;99.90
3466;DHT22;1747;48.884;9.160;2022-11-11T15:49:41;14.00;99.90
3466;DHT22;1747;48.884;9.160;2022-11-11T15:52:27;13.90;99.90
3466;DHT22;1747;48.884;9.160;2022-11-11T15:54:55;13.80;99.90
3466;DHT22;1747;48.884;9.160;2022-11-11T15:57:27;13.70;99.90
3466;DHT22;1747;48.884;9.160;2022-11-11T15:59:56;13.70;99.90
3466;DHT22;1747;48.884;9.160;2022-11-11T16:02:26;13.60;99.90
3466;DHT22;1747;48.884;9.160;2022-11-11T16:04:56;13.50;99.90
3466;DHT22;1747;48.884;9.160;2022-11-11T16:07:24;13.40;99.90
3466;DHT22;1747;48.884;9.160;2022-11-11T16:09:54;13.30;99.90
3466;DHT22;1747;48.884;9.160;2022-11-11T16:12:27;13.10;99.90
3466;DHT22;1747;48.884;9.160;2022-11-11T16:15:00;13.10;99.90
3466;DHT22;1747;48.884;9.160;2022-11-11T16:17:32;12.90;99.90
3466;DHT22;1747;48.884;9.160;2022-11-11T16:20:11;12.80;99.90
3466;DHT22;1747;48.884;9.160;2022-11-11T16:22:40;12.70;99.90
3466;DHT22;1747;48.884;9.160;2022-11-11T16:25:13;12.60;99.90
3466;DHT22;1747;48.884;9.160;2022-11-11T16:27:41;12.60;99.90
3466;DHT22;1747;48.884;9.160;2022-11-11T16:30:16;12.50;99.90
3466;DHT22;1747;48.884;9.160;2022-11-11T16:32:44;12.60;99.90
3466;DHT22;1747;48.884;9.160;2022-11-11T16:35:30;12.50;99.90
3466;DHT22;1747;48.884;9.160;2022-11-11T16:38:01;12.50;99.90
3466;DHT22;1747;48.884;9.160;2022-11-11T16:40:42;12.40;99.90
3466;DHT22;1747;48.884;9.160;2022-11-11T16:43:20;12.40;99.90
3466;DHT22;1747;48.884;9.160;2022-11-11T16:45:57;12.40;99.90
3466;DHT22;1747;48.884;9.160;2022-11-11T16:48:43;12.10;99.90
3466;DHT22;1747;48.884;9.160;2022-11-11T16:51:15;12.00;99.90
3466;DHT22;1747;48.884;9.160;2022-11-11T16:53:48;11.80;99.90
3466;DHT22;1747;48.884;9.160;2022-11-11T16:56:20;11.70;99.90